sensor_id;sensor_type;location;lat;lon;timestamp;temperature;humidity
2487;DHT22;1254;49.144;8.212;2022-12-10T00:00:51;1.70;99.90
2487;DHT22;1254;49.144;8.212;2022-12-10T00:03:19;1.70;99.90
2487;DHT22;1254;49.144;8.212;2022-12-10T00:05:47;1.70;99.90
2487;DHT22;1254;49.144;8.212;2022-12-10T00:08:15;1.60;99.90
2487;DHT22;1254;49.144;8.212;2022-12-10T00:10:44;1.60;99.90
2487;DHT22;1254;49.144;8.212;2022-12-10T00:13:12;1.60;99.90
2487;DHT22;1254;49.144;8.212;2022-12-10T00:15:40;1.70;99.90
2487;DHT22;1254;49.144;8.212;2022-12-10T00:18:08;1.70;99.90
2487;DHT22;1254;49.144;8.212;2022-12-10T00:20:36;1.70;99.90
2487;DHT22;1254;49.144;8.212;2022-12-10T00:23:04;1.60;99.90
2487;DHT22;1254;49.144;8.212;2022-12-10T00:25:32;1.60;99.90
2487;DHT22;1254;49.144;8.212;2022-12-10T00:28:02;1.60;99.90
2487;DHT22;1254;49.144;8.212;2022-12-10T00:30:30;1.60;99.90
2487;DHT22;1254;49.144;8.212;2022-12-10T00:32:58;1.60;99.90
2487;DHT22;1254;49.144;8.212;2022-12-10T00:35:26;1.60;99.90
2487;DHT22;1254;49.144;8.212;2022-12-10T00:37:54;1.60;99.90
2487;DHT22;1254;49.144;8.212;2022-12-10T00:40:22;1.60;99.90
2487;DHT22;1254;49.144;8.212;2022-12-10T00:42:50;1.60;99.90
2487;DHT22;1254;49.144;8.212;2022-12-10T00:45:20;1.60;99.90
2487;DHT22;1254;49.144;8.212;2022-12-10T00:47:48;1.50;99.90
2487;DHT22;1254;49.144;8.212;2022-12-10T00:50:16;1.50;99.90
2487;DHT22;1254;49.144;8.212;2022-12-10T00:52:44;1.50;99.90
2487;DHT22;1254;49.144;8.212;2022-12-10T00:55:12;1.50;99.90
2487;DHT22;1254;49.144;8.212;2022-12-10T00:57:40;1.50;99.90
2487;DHT22;1254;49.144;8.212;2022-12-10T01:00:09;1.50;99.90
2487;DHT22;1254;49.144;8.212;2022-12-10T01:02:39;1.50;99.90
2487;DHT22;1254;49.144;8.212;2022-12-10T01:05:07;1.50;99.90
2487;DHT22;1254;49.144;8.212;2022-12-10T01:07:35;1.50;99.90
2487;DHT22;1254;49.144;8.212;2022-12-10T01:10:04;1.50;99.90
2487;DHT22;1254;49.144;8.212;2022-12-10T01:12:32;1.50;99.90
2487;DHT22;1254;49.144;8.212;2022-12-10T01:15:00;1.50;99.90
2487;DHT22;1254;49.144;8.212;2022-12-10T01:17:28;1.50;99.90
2487;DHT22;1254;49.144;8.212;2022-12-10T01:19:57;1.50;99.90
2487;DHT22;1254;49.144;8.212;2022-12-10T01:22:26;1.50;99.90
2487;DHT22;1254;49.144;8.212;2022-12-10T01:24:54;1.50;99.90
2487;DHT22;1254;49.144;8.212;2022-12-10T01:27:22;1.50;99.90
2487;DHT22;1254;49.144;8.212;2022-12-10T01:29:50;1.50;99.90
2487;DHT22;1254;49.144;8.212;2022-12-10T01:32:18;1.50;99.90
2487;DHT22;1254;49.144;8.212;2022-12-10T01:34:46;1.40;99.90
2487;DHT22;1254;49.144;8.212;2022-12-10T01:37:15;1.40;99.90
2487;DHT22;1254;49.144;8.212;2022-12-10T01:39:43;1.50;99.90
2487;DHT22;1254;49.144;8.212;2022-12-10T01:42:13;1.50;99.90
2487;DHT22;1254;49.144;8.212;2022-12-10T01:45:00;1.50;99.90
2487;DHT22;1254;49.144;8.212;2022-12-10T01:47:31;1.40;99.90
2487;DHT22;1254;49.144;8.212;2022-12-10T01:49:59;1.50;99.90
2487;DHT22;1254;49.144;8.212;2022-12-10T01:52:29;1.40;99.90
2487;DHT22;1254;49.144;8.212;2022-12-10T01:54:57;1.50;99.90
2487;DHT22;1254;49.144;8.212;2022-12-10T01:57:26;1.50;99.90
2487;DHT22;1254;49.144;8.212;2022-12-10T01:59:57;1.40;99.90
2487;DHT22;1254;49.144;8.212;2022-12-10T02:02:38;1.40;99.90
2487;DHT22;1254;49.144;8.212;2022-12-10T02:05:19;1.50;99.90
2487;DHT22;1254;49.144;8.212;2022-12-10T02:08:01;1.50;99.90
2487;DHT22;1254;49.144;8.212;2022-12-10T02:10:42;1.50;99.90
2487;DHT22;1254;49.144;8.212;2022-12-10T02:13:17;1.50;99.90
2487;DHT22;1254;49.144;8.212;2022-12-10T02:15:50;1.40;99.90
2487;DHT22;1254;49.144;8.212;2022-12-10T02:18:23;1.40;99.90
2487;DHT22;1254;49.144;8.212;2022-12-10T02:20:53;1.40;99.90
2487;DHT22;1254;49.144;8.212;2022-12-10T02:23:27;1.40;99.90
2487;DHT22;1254;49.144;8.212;2022-12-10T02:25:59;1.40;99.90
2487;DHT22;1254;49.144;8.212;2022-12-10T02:28:34;1.40;99.90
2487;DHT22;1254;49.144;8.212;2022-12-10T02:31:09;1.40;99.90
2487;DHT22;1254;49.144;8.212;2022-12-10T02:33:43;1.40;99.90
2487;DHT22;1254;49.144;8.212;2022-12-10T02:36:14;1.40;99.90
2487;DHT22;1254;49.144;8.212;2022-12-10T02:38:43;1.40;99.90
2487;DHT22;1254;49.144;8.212;2022-12-10T02:41:15;1.40;99.90
2487;DHT22;1254;49.144;8.212;2022-12-10T02:43:45;1.40;99.90
2487;DHT22;1254;49.144;8.212;2022-12-10T02:46:18;1.40;99.90
2487;DHT22;1254;49.144;8.212;2022-12-10T02:48:49;1.30;99.90
2487;DHT22;1254;49.144;8.212;2022-12-10T02:51:17;1.30;99.90
2487;DHT22;1254;49.144;8.212;2022-12-10T02:53:46;1.30;99.90
2487;DHT22;1254;49.144;8.212;2022-12-10T02:56:18;1.30;99.90
2487;DHT22;1254;49.144;8.212;2022-12-10T02:58:58;1.30;99.90
2487;DHT22;1254;49.144;8.212;2022-12-10T03:01:37;1.30;99.90
2487;DHT22;1254;49.144;8.212;2022-12-10T03:04:12;1.20;99.90
2487;DHT22;1254;49.144;8.212;2022-12-10T03:06:44;1.30;99.90
2487;DHT22;1254;49.144;8.212;2022-12-10T03:09:17;1.20;99.90
2487;DHT22;1254;49.144;8.212;2022-12-10T03:11:50;1.20;99.90
2487;DHT22;1254;49.144;8.212;2022-12-10T03:14:23;1.20;99.90
2487;DHT22;1254;49.144;8.212;2022-12-10T03:16:55;1.20;99.90
2487;DHT22;1254;49.144;8.212;2022-12-10T03:19:26;1.20;99.90
2487;DHT22;1254;49.144;8.212;2022-12-10T03:21:56;1.20;99.90
2487;DHT22;1254;49.144;8.212;2022-12-10T03:24:26;1.20;99.90
2487;DHT22;1254;49.144;8.212;2022-12-10T03:26:55;1.20;99.90
2487;DHT22;1254;49.144;8.212;2022-12-10T03:29:30;1.20;99.90
2487;DHT22;1254;49.144;8.212;2022-12-10T03:32:01;1.20;99.90
2487;DHT22;1254;49.144;8.212;2022-12-10T03:34:29;1.20;99.90
2487;DHT22;1254;49.144;8.212;2022-12-10T03:36:58;1.20;99.90
2487;DHT22;1254;49.144;8.212;2022-12-10T03:39:27;1.20;99.90
2487;DHT22;1254;49.144;8.212;2022-12-10T03:41:55;1.20;99.90
2487;DHT22;1254;49.144;8.212;2022-12-10T03:44:28;1.20;99.90
2487;DHT22;1254;49.144;8.212;2022-12-10T03:46:56;1.20;99.90
2487;DHT22;1254;49.144;8.212;2022-12-10T03:49:26;1.20;99.90
2487;DHT22;1254;49.144;8.212;2022-12-10T03:51:54;1.10;99.90
2487;DHT22;1254;49.144;8.212;2022-12-10T03:54:22;1.20;99.90
2487;DHT22;1254;49.144;8.212;2022-12-10T03:56:50;1.20;99.90
2487;DHT22;1254;49.144;8.212;2022-12-10T03:59:18;1.20;99.90
2487;DHT22;1254;49.144;8.212;2022-12-10T04:01:46;1.10;99.90
2487;DHT22;1254;49.144;8.212;2022-12-10T04:04:15;1.10;99.90
2487;DHT22;1254;49.144;8.212;2022-12-10T04:06:45;1.10;99.90
2487;DHT22;1254;49.144;8.212;2022-12-10T04:09:15;1.10;99.90
2487;DHT22;1254;49.144;8.212;2022-12-10T04:11:44;1.10;99.90
2487;DHT22;1254;49.144;8.212;2022-12-10T04:14:13;1.10;99.90
2487;DHT22;1254;49.144;8.212;2022-12-10T04:16:58;1.10;99.90
2487;DHT22;1254;49.144;8.212;2022-12-10T04:19:27;1.10;99.90
2487;DHT22;1254;49.144;8.212;2022-12-10T04:21:56;1.00;99.90
2487;DHT22;1254;49.144;8.212;2022-12-10T04:24:42;1.00;99.90
2487;DHT22;1254;49.144;8.212;2022-12-10T04:27:30;1.00;99.90
2487;DHT22;1254;49.144;8.212;2022-12-10T04:29:59;1.10;99.90
2487;DHT22;1254;49.144;8.212;2022-12-10T04:32:29;1.00;99.90
2487;DHT22;1254;49.144;8.212;2022-12-10T04:34:57;1.10;99.90
2487;DHT22;1254;49.144;8.212;2022-12-10T04:37:27;1.00;99.90
2487;DHT22;1254;49.144;8.212;2022-12-10T04:39:56;1.00;99.90
2487;DHT22;1254;49.144;8.212;2022-12-10T04:42:24;1.00;99.90
2487;DHT22;1254;49.144;8.212;2022-12-10T04:44:52;1.00;99.90
2487;DHT22;1254;49.144;8.212;2022-12-10T04:47:20;1.10;99.90
2487;DHT22;1254;49.144;8.212;2022-12-10T04:49:48;1.00;99.90
2487;DHT22;1254;49.144;8.212;2022-12-10T04:52:16;1.00;99.90
2487;DHT22;1254;49.144;8.212;2022-12-10T04:54:45;1.00;99.90
2487;DHT22;1254;49.144;8.212;2022-12-10T04:57:14;1.00;99.90
2487;DHT22;1254;49.144;8.212;2022-12-10T04:59:41;1.00;99.90
2487;DHT22;1254;49.144;8.212;2022-12-10T05:02:09;0.90;99.90
2487;DHT22;1254;49.144;8.212;2022-12-10T05:04:37;0.90;99.90
2487;DHT22;1254;49.144;8.212;2022-12-10T05:07:05;0.90;99.90
2487;DHT22;1254;49.144;8.212;2022-12-10T05:09:33;0.90;99.90
2487;DHT22;1254;49.144;8.212;2022-12-10T05:12:03;0.90;99.90
2487;DHT22;1254;49.144;8.212;2022-12-10T05:14:31;0.90;99.90
2487;DHT22;1254;49.144;8.212;2022-12-10T05:16:59;0.80;99.90
2487;DHT22;1254;49.144;8.212;2022-12-10T05:19:27;0.90;99.90
2487;DHT22;1254;49.144;8.212;2022-12-10T05:21:55;0.90;99.90
2487;DHT22;1254;49.144;8.212;2022-12-10T05:24:40;0.90;99.90
2487;DHT22;1254;49.144;8.212;2022-12-10T05:27:09;0.90;99.90
2487;DHT22;1254;49.144;8.212;2022-12-10T05:29:37;0.90;99.90
2487;DHT22;1254;49.144;8.212;2022-12-10T05:32:05;0.90;99.90
2487;DHT22;1254;49.144;8.212;2022-12-10T05:34:33;0.80;99.90
2487;DHT22;1254;49.144;8.212;2022-12-10T05:37:01;0.90;99.90
2487;DHT22;1254;49.144;8.212;2022-12-10T05:39:29;0.90;99.90
2487;DHT22;1254;49.144;8.212;2022-12-10T05:41:57;0.90;99.90
2487;DHT22;1254;49.144;8.212;2022-12-10T05:44:27;0.90;99.90
2487;DHT22;1254;49.144;8.212;2022-12-10T05:46:56;0.90;99.90
2487;DHT22;1254;49.144;8.212;2022-12-10T05:49:23;0.80;99.90
2487;DHT22;1254;49.144;8.212;2022-12-10T05:51:54;0.80;99.90
2487;DHT22;1254;49.144;8.212;2022-12-10T05:54:23;0.80;99.90
2487;DHT22;1254;49.144;8.212;2022-12-10T05:56:51;0.90;99.90
2487;DHT22;1254;49.144;8.212;2022-12-10T05:59:20;0.80;99.90
2487;DHT22;1254;49.144;8.212;2022-12-10T06:01:49;0.80;99.90
2487;DHT22;1254;49.144;8.212;2022-12-10T06:04:17;0.80;99.90
2487;DHT22;1254;49.144;8.212;2022-12-10T06:06:45;0.80;99.90
2487;DHT22;1254;49.144;8.212;2022-12-10T06:09:13;0.80;99.90
2487;DHT22;1254;49.144;8.212;2022-12-10T06:11:41;0.80;99.90
2487;DHT22;1254;49.144;8.212;2022-12-10T06:14:10;0.80;99.90
2487;DHT22;1254;49.144;8.212;2022-12-10T06:16:39;0.80;99.90
2487;DHT22;1254;49.144;8.212;2022-12-10T06:19:09;0.70;99.90
2487;DHT22;1254;49.144;8.212;2022-12-10T06:21:37;0.80;99.90
2487;DHT22;1254;49.144;8.212;2022-12-10T06:24:06;0.70;99.90
2487;DHT22;1254;49.144;8.212;2022-12-10T06:26:34;0.80;99.90
2487;DHT22;1254;49.144;8.212;2022-12-10T06:29:03;0.80;99.90
2487;DHT22;1254;49.144;8.212;2022-12-10T06:31:32;0.70;99.90
2487;DHT22;1254;49.144;8.212;2022-12-10T06:33:59;0.70;99.90
2487;DHT22;1254;49.144;8.212;2022-12-10T06:36:29;0.70;99.90
2487;DHT22;1254;49.144;8.212;2022-12-10T06:38:57;0.70;99.90
2487;DHT22;1254;49.144;8.212;2022-12-10T06:41:25;0.70;99.90
2487;DHT22;1254;49.144;8.212;2022-12-10T06:43:53;0.70;99.90
2487;DHT22;1254;49.144;8.212;2022-12-10T06:46:25;0.70;99.90
2487;DHT22;1254;49.144;8.212;2022-12-10T06:48:54;0.70;99.90
2487;DHT22;1254;49.144;8.212;2022-12-10T06:51:22;0.80;99.90
2487;DHT22;1254;49.144;8.212;2022-12-10T06:53:51;0.80;99.90
2487;DHT22;1254;49.144;8.212;2022-12-10T06:56:19;0.80;99.90
2487;DHT22;1254;49.144;8.212;2022-12-10T06:58:48;0.80;99.90
2487;DHT22;1254;49.144;8.212;2022-12-10T07:01:17;0.70;99.90
2487;DHT22;1254;49.144;8.212;2022-12-10T07:03:48;0.80;99.90
2487;DHT22;1254;49.144;8.212;2022-12-10T07:06:16;0.80;99.90
2487;DHT22;1254;49.144;8.212;2022-12-10T07:08:45;0.70;99.90
2487;DHT22;1254;49.144;8.212;2022-12-10T07:11:16;0.70;99.90
2487;DHT22;1254;49.144;8.212;2022-12-10T07:13:44;0.80;99.90
2487;DHT22;1254;49.144;8.212;2022-12-10T07:16:14;0.80;99.90
2487;DHT22;1254;49.144;8.212;2022-12-10T07:18:42;0.80;99.90
2487;DHT22;1254;49.144;8.212;2022-12-10T07:21:14;0.80;99.90
2487;DHT22;1254;49.144;8.212;2022-12-10T07:23:42;0.80;99.90
2487;DHT22;1254;49.144;8.212;2022-12-10T07:26:10;0.80;99.90
2487;DHT22;1254;49.144;8.212;2022-12-10T07:28:40;0.80;99.90
2487;DHT22;1254;49.144;8.212;2022-12-10T07:31:09;0.80;99.90
2487;DHT22;1254;49.144;8.212;2022-12-10T07:33:37;0.80;99.90
2487;DHT22;1254;49.144;8.212;2022-12-10T07:36:06;0.80;99.90
2487;DHT22;1254;49.144;8.212;2022-12-10T07:38:35;0.80;99.90
2487;DHT22;1254;49.144;8.212;2022-12-10T07:41:05;0.80;99.90
2487;DHT22;1254;49.144;8.212;2022-12-10T07:43:36;0.80;99.90
2487;DHT22;1254;49.144;8.212;2022-12-10T07:46:07;0.80;99.90
2487;DHT22;1254;49.144;8.212;2022-12-10T07:48:36;0.80;99.90
2487;DHT22;1254;49.144;8.212;2022-12-10T07:51:05;0.80;99.90
2487;DHT22;1254;49.144;8.212;2022-12-10T07:53:34;0.80;99.90
2487;DHT22;1254;49.144;8.212;2022-12-10T07:56:03;0.80;99.90
2487;DHT22;1254;49.144;8.212;2022-12-10T07:58:31;0.80;99.90
2487;DHT22;1254;49.144;8.212;2022-12-10T08:01:07;0.90;99.90
2487;DHT22;1254;49.144;8.212;2022-12-10T08:03:35;0.90;99.90
2487;DHT22;1254;49.144;8.212;2022-12-10T08:06:04;0.90;99.90
2487;DHT22;1254;49.144;8.212;2022-12-10T08:08:33;0.90;99.90
2487;DHT22;1254;49.144;8.212;2022-12-10T08:11:01;1.00;99.90
2487;DHT22;1254;49.144;8.212;2022-12-10T08:13:30;1.00;99.90
2487;DHT22;1254;49.144;8.212;2022-12-10T08:16:00;1.00;99.90
2487;DHT22;1254;49.144;8.212;2022-12-10T08:18:30;1.00;99.90
2487;DHT22;1254;49.144;8.212;2022-12-10T08:20:58;1.00;99.90
2487;DHT22;1254;49.144;8.212;2022-12-10T08:23:26;1.00;99.90
2487;DHT22;1254;49.144;8.212;2022-12-10T08:25:56;1.00;99.90
2487;DHT22;1254;49.144;8.212;2022-12-10T08:28:24;1.00;99.90
2487;DHT22;1254;49.144;8.212;2022-12-10T08:30:52;1.00;99.90
2487;DHT22;1254;49.144;8.212;2022-12-10T08:33:21;1.00;99.90
2487;DHT22;1254;49.144;8.212;2022-12-10T08:35:50;1.00;99.90
2487;DHT22;1254;49.144;8.212;2022-12-10T08:38:19;1.10;99.90
2487;DHT22;1254;49.144;8.212;2022-12-10T08:40:46;1.10;99.90
2487;DHT22;1254;49.144;8.212;2022-12-10T08:43:15;1.10;99.90
2487;DHT22;1254;49.144;8.212;2022-12-10T08:45:43;1.10;99.90
2487;DHT22;1254;49.144;8.212;2022-12-10T08:48:11;1.10;99.90
2487;DHT22;1254;49.144;8.212;2022-12-10T08:50:39;1.10;99.90
2487;DHT22;1254;49.144;8.212;2022-12-10T08:53:09;1.20;99.90
2487;DHT22;1254;49.144;8.212;2022-12-10T08:55:38;1.20;99.90
2487;DHT22;1254;49.144;8.212;2022-12-10T08:58:07;1.20;99.90
2487;DHT22;1254;49.144;8.212;2022-12-10T09:00:36;1.20;99.90
2487;DHT22;1254;49.144;8.212;2022-12-10T09:03:04;1.30;99.90
2487;DHT22;1254;49.144;8.212;2022-12-10T09:05:34;1.30;99.90
2487;DHT22;1254;49.144;8.212;2022-12-10T09:08:02;1.30;99.90
2487;DHT22;1254;49.144;8.212;2022-12-10T09:10:31;1.30;99.90
2487;DHT22;1254;49.144;8.212;2022-12-10T09:12:59;1.30;99.90
2487;DHT22;1254;49.144;8.212;2022-12-10T09:15:30;1.30;99.90
2487;DHT22;1254;49.144;8.212;2022-12-10T09:17:58;1.30;99.90
2487;DHT22;1254;49.144;8.212;2022-12-10T09:20:26;1.30;99.90
2487;DHT22;1254;49.144;8.212;2022-12-10T09:22:54;1.40;99.90
2487;DHT22;1254;49.144;8.212;2022-12-10T09:25:22;1.30;99.90
2487;DHT22;1254;49.144;8.212;2022-12-10T09:27:51;1.40;99.90
2487;DHT22;1254;49.144;8.212;2022-12-10T09:30:19;1.40;99.90
2487;DHT22;1254;49.144;8.212;2022-12-10T09:32:47;1.40;99.90
2487;DHT22;1254;49.144;8.212;2022-12-10T09:35:15;1.50;99.90
2487;DHT22;1254;49.144;8.212;2022-12-10T09:37:43;1.50;99.90
2487;DHT22;1254;49.144;8.212;2022-12-10T09:40:14;1.50;99.90
2487;DHT22;1254;49.144;8.212;2022-12-10T09:42:48;1.60;99.90
2487;DHT22;1254;49.144;8.212;2022-12-10T09:45:25;1.70;99.90
2487;DHT22;1254;49.144;8.212;2022-12-10T09:48:00;1.70;99.90
2487;DHT22;1254;49.144;8.212;2022-12-10T09:50:32;1.70;99.90
2487;DHT22;1254;49.144;8.212;2022-12-10T09:53:03;1.70;99.90
2487;DHT22;1254;49.144;8.212;2022-12-10T09:55:35;1.80;99.90
2487;DHT22;1254;49.144;8.212;2022-12-10T09:58:05;1.80;99.90
2487;DHT22;1254;49.144;8.212;2022-12-10T10:00:39;1.90;99.90
2487;DHT22;1254;49.144;8.212;2022-12-10T10:03:13;2.00;99.90
2487;DHT22;1254;49.144;8.212;2022-12-10T10:05:44;2.00;99.90
2487;DHT22;1254;49.144;8.212;2022-12-10T10:08:20;2.00;99.90
2487;DHT22;1254;49.144;8.212;2022-12-10T10:10:49;2.10;99.90
2487;DHT22;1254;49.144;8.212;2022-12-10T10:13:27;2.10;99.90
2487;DHT22;1254;49.144;8.212;2022-12-10T10:16:12;2.30;99.90
2487;DHT22;1254;49.144;8.212;2022-12-10T10:18:43;2.30;99.90
2487;DHT22;1254;49.144;8.212;2022-12-10T10:21:18;2.40;99.90
2487;DHT22;1254;49.144;8.212;2022-12-10T10:23:47;2.40;99.90
2487;DHT22;1254;49.144;8.212;2022-12-10T10:26:15;2.40;99.90
2487;DHT22;1254;49.144;8.212;2022-12-10T10:28:43;2.40;99.90
2487;DHT22;1254;49.144;8.212;2022-12-10T10:31:18;2.40;99.90
2487;DHT22;1254;49.144;8.212;2022-12-10T10:33:49;2.50;99.90
2487;DHT22;1254;49.144;8.212;2022-12-10T10:36:24;2.50;99.90
2487;DHT22;1254;49.144;8.212;2022-12-10T10:38:53;2.50;99.90
2487;DHT22;1254;49.144;8.212;2022-12-10T10:41:22;2.60;99.90
2487;DHT22;1254;49.144;8.212;2022-12-10T10:43:58;2.50;99.90
2487;DHT22;1254;49.144;8.212;2022-12-10T10:46:28;2.60;99.90
2487;DHT22;1254;49.144;8.212;2022-12-10T10:49:14;2.70;99.90
2487;DHT22;1254;49.144;8.212;2022-12-10T10:51:45;2.60;99.90
2487;DHT22;1254;49.144;8.212;2022-12-10T10:54:32;2.60;99.90
2487;DHT22;1254;49.144;8.212;2022-12-10T10:57:02;2.60;99.90
2487;DHT22;1254;49.144;8.212;2022-12-10T10:59:34;2.60;99.90
2487;DHT22;1254;49.144;8.212;2022-12-10T11:02:14;2.60;99.90
2487;DHT22;1254;49.144;8.212;2022-12-10T11:04:46;2.50;99.90
2487;DHT22;1254;49.144;8.212;2022-12-10T11:07:21;2.50;99.90
2487;DHT22;1254;49.144;8.212;2022-12-10T11:09:49;2.50;99.90
2487;DHT22;1254;49.144;8.212;2022-12-10T11:12:30;2.50;99.90
2487;DHT22;1254;49.144;8.212;2022-12-10T11:15:00;2.50;99.90
2487;DHT22;1254;49.144;8.212;2022-12-10T11:17:30;2.60;99.90
2487;DHT22;1254;49.144;8.212;2022-12-10T11:20:00;2.60;99.90
2487;DHT22;1254;49.144;8.212;2022-12-10T11:22:31;2.70;99.90
2487;DHT22;1254;49.144;8.212;2022-12-10T11:25:00;2.80;99.90
2487;DHT22;1254;49.144;8.212;2022-12-10T11:27:43;2.90;99.90
2487;DHT22;1254;49.144;8.212;2022-12-10T11:30:16;2.90;99.90
2487;DHT22;1254;49.144;8.212;2022-12-10T11:33:03;2.80;99.90
2487;DHT22;1254;49.144;8.212;2022-12-10T11:35:42;2.70;99.90
2487;DHT22;1254;49.144;8.212;2022-12-10T11:38:22;2.70;99.90
2487;DHT22;1254;49.144;8.212;2022-12-10T11:41:00;2.80;99.90
2487;DHT22;1254;49.144;8.212;2022-12-10T11:43:42;2.70;99.90
2487;DHT22;1254;49.144;8.212;2022-12-10T11:46:24;2.70;99.90
2487;DHT22;1254;49.144;8.212;2022-12-10T11:49:12;2.70;99.90
2487;DHT22;1254;49.144;8.212;2022-12-10T11:51:48;2.80;99.90
2487;DHT22;1254;49.144;8.212;2022-12-10T11:54:31;2.90;99.90
2487;DHT22;1254;49.144;8.212;2022-12-10T11:57:07;2.80;99.90
2487;DHT22;1254;49.144;8.212;2022-12-10T11:59:43;2.70;99.90
2487;DHT22;1254;49.144;8.212;2022-12-10T12:02:29;2.70;99.90
2487;DHT22;1254;49.144;8.212;2022-12-10T12:05:19;2.70;99.90
2487;DHT22;1254;49.144;8.212;2022-12-10T12:07:56;2.80;99.90
2487;DHT22;1254;49.144;8.212;2022-12-10T12:13:29;2.80;99.90
2487;DHT22;1254;49.144;8.212;2022-12-10T12:16:04;2.80;99.90
2487;DHT22;1254;49.144;8.212;2022-12-10T12:18:41;2.70;99.90
2487;DHT22;1254;49.144;8.212;2022-12-10T12:21:13;2.80;99.90
2487;DHT22;1254;49.144;8.212;2022-12-10T12:23:49;2.70;99.90
2487;DHT22;1254;49.144;8.212;2022-12-10T12:26:21;2.90;99.90
2487;DHT22;1254;49.144;8.212;2022-12-10T12:28:53;3.00;99.90
2487;DHT22;1254;49.144;8.212;2022-12-10T12:31:30;3.00;99.90
2487;DHT22;1254;49.144;8.212;2022-12-10T12:34:03;3.00;99.90
2487;DHT22;1254;49.144;8.212;2022-12-10T12:36:35;2.90;99.90
2487;DHT22;1254;49.144;8.212;2022-12-10T12:39:10;3.00;99.90
2487;DHT22;1254;49.144;8.212;2022-12-10T12:41:46;2.90;99.90
2487;DHT22;1254;49.144;8.212;2022-12-10T12:44:24;2.90;99.90
2487;DHT22;1254;49.144;8.212;2022-12-10T12:46:58;2.90;99.90
2487;DHT22;1254;49.144;8.212;2022-12-10T12:49:31;2.90;99.90
2487;DHT22;1254;49.144;8.212;2022-12-10T12:52:18;2.90;99.90
2487;DHT22;1254;49.144;8.212;2022-12-10T12:54:48;3.00;99.90
2487;DHT22;1254;49.144;8.212;2022-12-10T12:57:23;3.00;99.90
2487;DHT22;1254;49.144;8.212;2022-12-10T13:00:00;2.90;99.90
2487;DHT22;1254;49.144;8.212;2022-12-10T13:02:44;2.90;99.90
2487;DHT22;1254;49.144;8.212;2022-12-10T13:05:16;3.00;99.90
2487;DHT22;1254;49.144;8.212;2022-12-10T13:08:15;3.00;99.90
2487;DHT22;1254;49.144;8.212;2022-12-10T13:10:45;2.90;99.90
2487;DHT22;1254;49.144;8.212;2022-12-10T13:13:25;3.00;99.90
2487;DHT22;1254;49.144;8.212;2022-12-10T13:15:56;3.00;99.90
2487;DHT22;1254;49.144;8.212;2022-12-10T13:18:37;3.00;99.90
2487;DHT22;1254;49.144;8.212;2022-12-10T13:21:28;3.00;99.90
2487;DHT22;1254;49.144;8.212;2022-12-10T13:24:10;3.10;99.90
2487;DHT22;1254;49.144;8.212;2022-12-10T13:29:26;3.10;99.90
2487;DHT22;1254;49.144;8.212;2022-12-10T13:32:02;3.20;99.90
2487;DHT22;1254;49.144;8.212;2022-12-10T13:34:33;3.20;99.90
2487;DHT22;1254;49.144;8.212;2022-12-10T13:37:14;3.20;99.90
2487;DHT22;1254;49.144;8.212;2022-12-10T13:39:52;3.30;99.90
2487;DHT22;1254;49.144;8.212;2022-12-10T13:42:32;3.30;99.90
2487;DHT22;1254;49.144;8.212;2022-12-10T13:45:31;3.30;99.90
2487;DHT22;1254;49.144;8.212;2022-12-10T13:48:32;3.40;99.90
2487;DHT22;1254;49.144;8.212;2022-12-10T13:51:21;3.40;99.90
2487;DHT22;1254;49.144;8.212;2022-12-10T13:54:02;3.30;99.90
2487;DHT22;1254;49.144;8.212;2022-12-10T13:56:39;3.30;99.90
2487;DHT22;1254;49.144;8.212;2022-12-10T13:59:26;3.40;99.90
2487;DHT22;1254;49.144;8.212;2022-12-10T14:02:17;3.40;99.90
2487;DHT22;1254;49.144;8.212;2022-12-10T14:07:50;3.70;99.90
2487;DHT22;1254;49.144;8.212;2022-12-10T14:10:24;3.90;99.90
2487;DHT22;1254;49.144;8.212;2022-12-10T14:12:55;3.90;99.90
2487;DHT22;1254;49.144;8.212;2022-12-10T14:15:25;3.80;99.90
2487;DHT22;1254;49.144;8.212;2022-12-10T14:17:57;3.80;99.90
2487;DHT22;1254;49.144;8.212;2022-12-10T14:20:29;3.90;99.90
2487;DHT22;1254;49.144;8.212;2022-12-10T14:23:03;3.80;99.90
2487;DHT22;1254;49.144;8.212;2022-12-10T14:25:46;3.80;99.90
2487;DHT22;1254;49.144;8.212;2022-12-10T14:28:17;3.50;99.90
2487;DHT22;1254;49.144;8.212;2022-12-10T14:30:48;3.40;99.90
2487;DHT22;1254;49.144;8.212;2022-12-10T14:33:18;3.40;99.90
2487;DHT22;1254;49.144;8.212;2022-12-10T14:35:49;3.40;99.90
2487;DHT22;1254;49.144;8.212;2022-12-10T14:38:20;3.30;99.90
2487;DHT22;1254;49.144;8.212;2022-12-10T14:40:49;3.30;99.90
2487;DHT22;1254;49.144;8.212;2022-12-10T14:43:21;3.20;99.90
2487;DHT22;1254;49.144;8.212;2022-12-10T14:45:51;3.20;99.90
2487;DHT22;1254;49.144;8.212;2022-12-10T14:48:20;3.20;99.90
2487;DHT22;1254;49.144;8.212;2022-12-10T14:50:48;3.10;99.90
2487;DHT22;1254;49.144;8.212;2022-12-10T14:53:19;3.00;99.90
2487;DHT22;1254;49.144;8.212;2022-12-10T14:55:49;3.00;99.90
2487;DHT22;1254;49.144;8.212;2022-12-10T14:58:25;3.00;99.90
2487;DHT22;1254;49.144;8.212;2022-12-10T15:00:55;2.90;99.90
2487;DHT22;1254;49.144;8.212;2022-12-10T15:03:27;2.80;99.90
2487;DHT22;1254;49.144;8.212;2022-12-10T15:05:56;2.70;99.90
2487;DHT22;1254;49.144;8.212;2022-12-10T15:08:25;2.70;99.90
2487;DHT22;1254;49.144;8.212;2022-12-10T15:10:56;2.80;99.90
2487;DHT22;1254;49.144;8.212;2022-12-10T15:13:32;2.70;99.90
2487;DHT22;1254;49.144;8.212;2022-12-10T15:16:01;2.70;99.90
2487;DHT22;1254;49.144;8.212;2022-12-10T15:18:32;2.60;99.90
2487;DHT22;1254;49.144;8.212;2022-12-10T15:21:05;2.50;99.90
2487;DHT22;1254;49.144;8.212;2022-12-10T15:23:37;2.50;99.90
2487;DHT22;1254;49.144;8.212;2022-12-10T15:26:15;2.50;99.90
2487;DHT22;1254;49.144;8.212;2022-12-10T15:28:47;2.50;99.90
2487;DHT22;1254;49.144;8.212;2022-12-10T15:31:21;2.40;99.90
2487;DHT22;1254;49.144;8.212;2022-12-10T15:33:52;2.30;99.90
2487;DHT22;1254;49.144;8.212;2022-12-10T15:36:28;2.30;99.90
2487;DHT22;1254;49.144;8.212;2022-12-10T15:39:02;2.30;99.90
2487;DHT22;1254;49.144;8.212;2022-12-10T15:41:39;2.30;99.90
2487;DHT22;1254;49.144;8.212;2022-12-10T15:44:18;2.30;99.90
2487;DHT22;1254;49.144;8.212;2022-12-10T15:46:47;2.30;99.90
2487;DHT22;1254;49.144;8.212;2022-12-10T15:49:16;2.30;99.90
2487;DHT22;1254;49.144;8.212;2022-12-10T15:51:44;2.20;99.90
2487;DHT22;1254;49.144;8.212;2022-12-10T15:54:23;2.20;99.90
2487;DHT22;1254;49.144;8.212;2022-12-10T15:56:51;2.30;99.90
2487;DHT22;1254;49.144;8.212;2022-12-10T15:59:20;2.20;99.90
2487;DHT22;1254;49.144;8.212;2022-12-10T16:01:48;2.30;99.90
2487;DHT22;1254;49.144;8.212;2022-12-10T16:04:16;2.30;99.90
2487;DHT22;1254;49.144;8.212;2022-12-10T16:06:44;2.30;99.90
2487;DHT22;1254;49.144;8.212;2022-12-10T16:09:12;2.20;99.90
2487;DHT22;1254;49.144;8.212;2022-12-10T16:11:40;2.20;99.90
2487;DHT22;1254;49.144;8.212;2022-12-10T16:14:09;2.10;99.90
2487;DHT22;1254;49.144;8.212;2022-12-10T16:16:39;2.10;99.90
2487;DHT22;1254;49.144;8.212;2022-12-10T16:19:10;2.10;99.90
2487;DHT22;1254;49.144;8.212;2022-12-10T16:21:39;2.10;99.90
2487;DHT22;1254;49.144;8.212;2022-12-10T16:24:07;2.10;99.90
2487;DHT22;1254;49.144;8.212;2022-12-10T16:26:35;2.00;99.90
2487;DHT22;1254;49.144;8.212;2022-12-10T16:29:03;2.10;99.90
2487;DHT22;1254;49.144;8.212;2022-12-10T16:31:31;2.10;99.90
2487;DHT22;1254;49.144;8.212;2022-12-10T16:34:01;2.10;99.90
2487;DHT22;1254;49.144;8.212;2022-12-10T16:36:29;2.00;99.90
2487;DHT22;1254;49.144;8.212;2022-12-10T16:38:58;2.00;99.90
2487;DHT22;1254;49.144;8.212;2022-12-10T16:41:28;2.00;99.90
2487;DHT22;1254;49.144;8.212;2022-12-10T16:43:56;2.10;99.90
2487;DHT22;1254;49.144;8.212;2022-12-10T16:46:24;2.10;99.90
2487;DHT22;1254;49.144;8.212;2022-12-10T16:48:52;2.00;99.90
2487;DHT22;1254;49.144;8.212;2022-12-10T16:51:24;2.00;99.90
2487;DHT22;1254;49.144;8.212;2022-12-10T16:53:55;2.00;99.90